createdAt,value
2018-06-04T00:00:36.512Z,66.31
2018-06-04T00:01:43.557Z,66.35
2018-06-04T00:02:50.582Z,66.40
2018-06-04T00:03:57.555Z,66.47
2018-06-04T00:05:04.364Z,66.53
2018-06-04T00:06:11.407Z,66.58
2018-06-04T00:07:18.399Z,66.57
2018-06-04T00:08:27.336Z,66.58
2018-06-04T00:09:32.266Z,66.60
2018-06-04T00:10:39.307Z,66.66
2018-06-04T00:11:46.264Z,66.70
2018-06-04T00:12:53.205Z,66.71
2018-06-04T00:14:00.070Z,66.75
2018-06-04T00:15:07.060Z,66.83
2018-06-04T00:16:14.068Z,66.87
2018-06-04T00:17:20.944Z,66.90
2018-06-04T00:18:27.784Z,66.95
2018-06-04T00:19:34.678Z,66.84
2018-06-04T00:20:41.476Z,66.91
2018-06-04T00:21:48.409Z,66.94
2018-06-04T00:22:55.203Z,66.96
2018-06-04T00:24:01.988Z,66.98
2018-06-04T00:25:08.975Z,67.01
2018-06-04T00:26:15.902Z,67.06
2018-06-04T00:27:22.799Z,67.13
2018-06-04T00:28:29.731Z,67.17
2018-06-04T00:29:36.653Z,67.20
2018-06-04T00:30:43.719Z,67.25
2018-06-04T00:31:50.603Z,67.25
2018-06-04T00:32:57.522Z,67.26
2018-06-04T00:34:04.431Z,67.33
2018-06-04T00:35:11.283Z,67.35
2018-06-04T00:36:18.052Z,67.37
2018-06-04T00:37:24.855Z,67.40
2018-06-04T00:38:31.707Z,67.47
2018-06-04T00:39:38.475Z,67.50
2018-06-04T00:40:45.347Z,67.49
2018-06-04T00:41:52.335Z,67.53
2018-06-04T00:42:59.187Z,67.54
2018-06-04T00:44:06.123Z,67.64
2018-06-04T00:45:12.927Z,67.73
2018-06-04T00:46:19.812Z,67.66
2018-06-04T00:47:26.612Z,67.68
2018-06-04T00:48:33.527Z,67.76
2018-06-04T00:49:40.448Z,67.77
2018-06-04T00:50:47.309Z,67.79
2018-06-04T00:51:54.423Z,67.84
2018-06-04T00:53:01.144Z,67.87
2018-06-04T00:54:08.338Z,67.89
2018-06-04T00:55:15.187Z,67.85
2018-06-04T00:56:22.096Z,67.85
2018-06-04T00:57:29.079Z,67.88
2018-06-04T00:58:35.952Z,67.97
2018-06-04T00:59:43.254Z,67.92
2018-06-04T01:00:49.587Z,67.97
2018-06-04T01:01:56.667Z,68.05
2018-06-04T01:03:03.631Z,68.03
2018-06-04T01:04:10.515Z,68.15
2018-06-04T01:05:17.427Z,68.14
2018-06-04T01:06:24.413Z,68.09
2018-06-04T01:07:31.136Z,68.14
2018-06-04T01:08:37.943Z,68.18
2018-06-04T01:09:44.905Z,68.19
2018-06-04T01:10:51.904Z,68.18
2018-06-04T01:11:58.822Z,68.24
2018-06-04T01:13:05.655Z,68.26
2018-06-04T01:14:12.548Z,68.30
2018-06-04T01:15:19.423Z,68.24
2018-06-04T01:16:26.273Z,68.28
2018-06-04T01:17:33.230Z,68.20
2018-06-04T01:18:39.988Z,68.27
2018-06-04T01:19:46.854Z,68.27
2018-06-04T01:20:53.790Z,68.34
2018-06-04T01:22:01.004Z,68.35
2018-06-04T01:23:07.919Z,68.35
2018-06-04T01:24:14.910Z,68.30
2018-06-04T01:25:21.921Z,68.37
2018-06-04T01:26:28.858Z,68.33
2018-06-04T01:27:35.706Z,68.40
2018-06-04T01:28:42.553Z,68.39
2018-06-04T01:29:49.451Z,68.38
2018-06-04T01:30:56.425Z,68.46
2018-06-04T01:32:03.471Z,68.46
2018-06-04T01:33:10.400Z,68.49
2018-06-04T01:34:17.211Z,68.49
2018-06-04T01:35:23.964Z,68.46
2018-06-04T01:36:30.936Z,68.43
2018-06-04T01:37:37.855Z,68.44
2018-06-04T01:38:44.707Z,68.52
2018-06-04T01:39:51.743Z,68.49
2018-06-04T01:40:58.723Z,68.53
2018-06-04T01:42:05.646Z,68.55
2018-06-04T01:43:12.614Z,68.52
2018-06-04T01:44:19.674Z,68.58
2018-06-04T01:45:26.483Z,68.65
2018-06-04T01:46:33.313Z,68.64
2018-06-04T01:47:40.240Z,68.67
2018-06-04T01:48:47.023Z,68.70
2018-06-04T01:49:54.052Z,68.74
2018-06-04T01:51:00.839Z,68.70
2018-06-04T01:52:07.758Z,68.78
2018-06-04T01:53:14.783Z,68.79
2018-06-04T01:54:21.607Z,68.79
2018-06-04T01:55:28.497Z,68.75
2018-06-04T01:56:35.469Z,68.68
2018-06-04T01:57:42.473Z,68.70
2018-06-04T01:58:49.416Z,68.72
2018-06-04T01:59:56.389Z,68.73
2018-06-04T02:01:03.359Z,68.75
2018-06-04T02:02:10.284Z,68.65
2018-06-04T02:03:17.095Z,68.75
2018-06-04T02:04:23.868Z,68.82
2018-06-04T02:05:30.859Z,68.87
2018-06-04T02:06:37.637Z,68.84
2018-06-04T02:07:44.618Z,68.88
2018-06-04T02:08:51.715Z,68.88
2018-06-04T02:09:58.823Z,68.91
2018-06-04T02:11:06.257Z,68.92
2018-06-04T02:12:12.761Z,68.95
2018-06-04T02:13:19.684Z,68.95
2018-06-04T02:14:26.728Z,68.99
2018-06-04T02:15:33.765Z,68.97
2018-06-04T02:16:40.691Z,69.01
2018-06-04T02:17:47.648Z,69.03
2018-06-04T02:18:54.716Z,69.02
2018-06-04T02:20:01.673Z,68.99
2018-06-04T02:21:08.692Z,69.09
2018-06-04T02:22:15.444Z,69.15
2018-06-04T02:23:22.568Z,69.12
2018-06-04T02:24:29.547Z,69.11
2018-06-04T02:25:36.567Z,69.12
2018-06-04T02:26:43.659Z,69.18
2018-06-04T02:27:50.744Z,69.20
2018-06-04T02:28:57.880Z,69.26
2018-06-04T02:30:04.442Z,69.30
2018-06-04T02:31:11.521Z,69.32
2018-06-04T02:32:18.609Z,69.29
2018-06-04T02:33:25.148Z,69.20
2018-06-04T02:34:32.252Z,69.21
2018-06-04T02:35:38.935Z,69.24
2018-06-04T02:36:46.041Z,69.30
2018-06-04T02:37:52.536Z,69.31
2018-06-04T02:38:59.682Z,69.32
2018-06-04T02:40:06.376Z,69.32
2018-06-04T02:41:13.015Z,69.28
2018-06-04T02:42:20.396Z,69.28
2018-06-04T02:43:26.751Z,69.33
2018-06-04T02:44:33.797Z,69.32
2018-06-04T02:45:40.787Z,69.36
2018-06-04T02:46:47.740Z,69.40
2018-06-04T02:47:54.755Z,69.45
2018-06-04T02:49:01.809Z,69.41
2018-06-04T02:50:08.935Z,69.39
2018-06-04T02:51:15.917Z,69.37
2018-06-04T02:52:23.005Z,69.36
2018-06-04T02:53:29.908Z,69.39
2018-06-04T02:54:36.972Z,69.39
2018-06-04T02:55:43.940Z,69.40
2018-06-04T02:56:50.901Z,69.35
2018-06-04T02:57:57.937Z,69.39
2018-06-04T02:59:04.867Z,69.40
2018-06-04T03:00:11.984Z,69.40
2018-06-04T03:01:19.055Z,69.41
2018-06-04T03:02:25.916Z,69.38
2018-06-04T03:03:32.803Z,69.35
2018-06-04T03:04:39.773Z,69.33
2018-06-04T03:05:49.433Z,69.28
2018-06-04T03:06:54.028Z,69.33
2018-06-04T03:08:00.716Z,69.30
2018-06-04T03:09:07.820Z,69.33
2018-06-04T03:10:14.849Z,69.37
2018-06-04T03:11:21.483Z,69.40
2018-06-04T03:12:28.770Z,69.43
2018-06-04T03:13:36.228Z,69.40
2018-06-04T03:14:42.691Z,69.50
2018-06-04T03:15:49.711Z,69.52
2018-06-04T03:16:56.692Z,69.55
2018-06-04T03:18:03.613Z,69.57
2018-06-04T03:19:10.650Z,69.57
2018-06-04T03:20:17.215Z,69.58
2018-06-04T03:21:24.112Z,69.56
2018-06-04T03:22:31.173Z,69.57
2018-06-04T03:23:38.551Z,69.62
2018-06-04T03:24:45.175Z,69.61
2018-06-04T03:25:52.273Z,69.63
2018-06-04T03:26:59.319Z,69.68
2018-06-04T03:28:06.356Z,69.69
2018-06-04T03:29:13.192Z,69.65
2018-06-04T03:30:20.267Z,69.71
2018-06-04T03:31:27.205Z,69.71
2018-06-04T03:32:34.421Z,69.70
2018-06-04T03:33:41.016Z,69.70
2018-06-04T03:34:47.750Z,69.77
2018-06-04T03:35:54.677Z,69.82
2018-06-04T03:37:01.697Z,69.85
2018-06-04T03:38:08.582Z,69.86
2018-06-04T03:39:16.086Z,69.94
2018-06-04T03:40:23.237Z,69.99
2018-06-04T03:41:29.552Z,70.04
2018-06-04T03:42:36.687Z,69.99
2018-06-04T03:43:43.604Z,70.04
2018-06-04T03:44:51.258Z,70.11
2018-06-04T03:45:58.015Z,70.11
2018-06-04T03:47:05.215Z,70.08
2018-06-04T03:48:12.253Z,70.11
2018-06-04T03:49:18.884Z,70.21
2018-06-04T03:50:25.409Z,70.26
2018-06-04T03:51:32.835Z,70.32
2018-06-04T03:52:39.997Z,70.35
2018-06-04T03:53:46.517Z,70.38
2018-06-04T03:54:53.413Z,70.39
2018-06-04T03:56:00.138Z,70.42
2018-06-04T03:57:07.174Z,70.40
2018-06-04T03:58:14.165Z,70.36
2018-06-04T03:59:20.949Z,70.42
2018-06-04T04:00:27.959Z,70.39
2018-06-04T04:01:35.148Z,70.40
2018-06-04T04:02:42.099Z,70.39
2018-06-04T04:03:49.203Z,70.42
2018-06-04T04:04:56.174Z,70.45
2018-06-04T04:06:03.268Z,70.48
2018-06-04T04:07:10.288Z,70.50
2018-06-04T04:08:17.269Z,70.54
2018-06-04T04:09:24.245Z,70.59
2018-06-04T04:10:31.307Z,70.68
2018-06-04T04:11:38.431Z,70.72
2018-06-04T04:12:45.449Z,70.76
2018-06-04T04:13:52.404Z,70.81
2018-06-04T04:14:59.388Z,70.90
2018-06-04T04:16:06.361Z,70.97
2018-06-04T04:17:13.324Z,71.04
2018-06-04T04:18:20.333Z,71.07
2018-06-04T04:19:27.232Z,71.16
2018-06-04T04:20:34.042Z,71.26
2018-06-04T04:21:40.988Z,71.28
2018-06-04T04:22:48.012Z,71.41
2018-06-04T04:23:55.155Z,71.49
2018-06-04T04:25:02.232Z,71.56
2018-06-04T04:26:09.344Z,71.64
2018-06-04T04:27:16.295Z,71.76
2018-06-04T04:28:23.213Z,71.87
2018-06-04T04:29:30.163Z,72.03
2018-06-04T04:30:37.030Z,72.15
2018-06-04T04:31:43.872Z,72.27
2018-06-04T04:32:50.691Z,72.40
2018-06-04T04:33:57.734Z,72.50
2018-06-04T04:35:04.722Z,72.61
2018-06-04T04:36:11.727Z,72.74
2018-06-04T04:37:18.548Z,72.88
2018-06-04T04:38:25.439Z,73.03
2018-06-04T04:39:32.292Z,73.14
2018-06-04T04:40:39.171Z,73.25
2018-06-04T04:41:45.936Z,73.40
2018-06-04T04:42:52.928Z,73.49
2018-06-04T04:43:59.900Z,73.71
2018-06-04T04:45:06.827Z,73.83
2018-06-04T04:46:13.898Z,73.94
2018-06-04T04:47:20.701Z,73.99
2018-06-04T04:48:27.533Z,74.03
2018-06-04T04:49:34.380Z,74.13
2018-06-04T04:50:41.196Z,74.24
2018-06-04T04:51:48.070Z,74.31
2018-06-04T04:52:54.831Z,74.37
2018-06-04T04:54:01.737Z,74.50
2018-06-04T04:55:08.580Z,74.65
2018-06-04T04:56:15.475Z,74.79
2018-06-04T04:57:22.431Z,74.93
2018-06-04T04:58:29.341Z,74.94
2018-06-04T04:59:36.249Z,75.10
2018-06-04T05:00:43.242Z,75.25
2018-06-04T05:01:50.256Z,75.37
2018-06-04T05:02:57.022Z,75.41
2018-06-04T05:04:04.059Z,75.58
2018-06-04T05:05:11.015Z,75.76
2018-06-04T05:06:17.859Z,75.86
2018-06-04T05:07:24.596Z,76.00
2018-06-04T05:08:31.609Z,76.09
2018-06-04T05:09:38.467Z,76.19
2018-06-04T05:10:45.384Z,76.28
2018-06-04T05:11:52.468Z,76.44
2018-06-04T05:12:59.572Z,76.57
2018-06-04T05:14:06.505Z,76.72
2018-06-04T05:15:13.322Z,76.84
2018-06-04T05:16:20.370Z,76.95
2018-06-04T05:17:27.400Z,77.12
2018-06-04T05:18:34.266Z,77.28
2018-06-04T05:19:41.239Z,77.39
2018-06-04T05:20:48.134Z,77.58
2018-06-04T05:21:55.071Z,77.62
2018-06-04T05:23:01.965Z,77.71
2018-06-04T05:24:09.195Z,77.83
2018-06-04T05:25:15.828Z,78.00
2018-06-04T05:26:22.772Z,78.21
2018-06-04T05:27:29.655Z,78.30
2018-06-04T05:28:36.441Z,78.44
2018-06-04T05:29:43.432Z,78.59
2018-06-04T05:30:50.480Z,78.68
2018-06-04T05:31:57.472Z,78.85
2018-06-04T05:33:04.388Z,79.09
2018-06-04T05:34:11.099Z,79.31
2018-06-04T05:35:18.022Z,79.49
2018-06-04T05:36:24.939Z,79.63
2018-06-04T05:37:31.875Z,79.74
2018-06-04T05:38:38.847Z,79.83
2018-06-04T05:39:45.556Z,79.89
2018-06-04T05:40:52.328Z,80.06
2018-06-04T05:41:59.355Z,80.23
2018-06-04T05:43:06.135Z,80.30
2018-06-04T05:44:13.123Z,80.44
2018-06-04T05:45:20.033Z,80.61
2018-06-04T05:46:27.056Z,80.80
2018-06-04T05:47:33.970Z,80.98
2018-06-04T05:48:40.963Z,81.10
2018-06-04T05:49:48.005Z,81.28
2018-06-04T05:50:54.915Z,81.44
2018-06-04T05:52:01.980Z,81.56
2018-06-04T05:53:09.001Z,81.77
2018-06-04T05:54:15.981Z,81.87
2018-06-04T05:55:23.010Z,82.01
2018-06-04T05:56:29.949Z,82.09
2018-06-04T05:57:36.985Z,82.25
2018-06-04T05:58:43.848Z,82.33
2018-06-04T05:59:50.851Z,82.22
2018-06-04T06:00:57.872Z,82.37
2018-06-04T06:02:04.871Z,82.41
2018-06-04T06:03:11.637Z,82.47
2018-06-04T06:04:18.371Z,82.50
2018-06-04T06:05:25.290Z,82.62
2018-06-04T06:06:32.255Z,82.63
2018-06-04T06:07:39.106Z,82.76
2018-06-04T06:08:45.926Z,82.86
2018-06-04T06:09:52.778Z,82.89
2018-06-04T06:10:59.913Z,82.95
2018-06-04T06:12:06.969Z,83.05
2018-06-04T06:13:14.009Z,83.23
2018-06-04T06:14:21.152Z,83.36
2018-06-04T06:15:27.588Z,83.34
2018-06-04T06:16:34.685Z,83.43
2018-06-04T06:17:44.559Z,83.49
2018-06-04T06:18:50.965Z,83.51
2018-06-04T06:19:55.707Z,83.67
2018-06-04T06:21:02.503Z,83.68
2018-06-04T06:22:09.733Z,83.73
2018-06-04T06:23:16.106Z,83.83
2018-06-04T06:24:23.098Z,83.96
2018-06-04T06:25:30.068Z,84.17
2018-06-04T06:26:36.935Z,84.20
2018-06-04T06:27:43.818Z,84.20
2018-06-04T06:28:50.639Z,84.12
2018-06-04T06:29:57.749Z,84.14
2018-06-04T06:31:04.754Z,84.15
2018-06-04T06:32:11.703Z,84.14
2018-06-04T06:33:18.596Z,84.23
2018-06-04T06:34:25.775Z,84.28
2018-06-04T06:35:32.483Z,84.29
2018-06-04T06:36:39.301Z,84.36
2018-06-04T06:37:46.255Z,84.56
2018-06-04T06:38:53.328Z,84.41
2018-06-04T06:40:00.319Z,84.41
2018-06-04T06:41:07.283Z,84.56
2018-06-04T06:42:14.381Z,84.59
2018-06-04T06:43:21.156Z,84.61
2018-06-04T06:44:28.044Z,84.39
2018-06-04T06:45:34.842Z,84.54
2018-06-04T06:46:43.217Z,84.46
2018-06-04T06:47:51.463Z,84.38
2018-06-04T06:48:55.352Z,84.41
2018-06-04T06:50:04.339Z,84.33
2018-06-04T06:51:09.423Z,84.35
2018-06-04T06:52:16.315Z,84.33
2018-06-04T06:53:23.357Z,84.18
2018-06-04T06:54:31.647Z,84.20
2018-06-04T06:55:37.165Z,84.26
2018-06-04T06:56:44.060Z,84.35
2018-06-04T06:57:50.948Z,84.26
2018-06-04T06:58:57.863Z,84.30
2018-06-04T07:00:04.756Z,84.30
2018-06-04T07:01:11.767Z,84.28
2018-06-04T07:02:18.935Z,84.17
2018-06-04T07:03:25.459Z,84.21
2018-06-04T07:04:32.344Z,84.25
2018-06-04T07:05:39.229Z,84.22
2018-06-04T07:06:46.152Z,84.19
2018-06-04T07:07:52.967Z,84.10
2018-06-04T07:09:00.015Z,84.08
2018-06-04T07:10:06.990Z,83.97
2018-06-04T07:11:14.178Z,83.94
2018-06-04T07:12:20.725Z,84.00
2018-06-04T07:13:27.673Z,83.98
2018-06-04T07:14:34.839Z,83.97
2018-06-04T07:15:41.680Z,84.01
2018-06-04T07:16:48.685Z,83.98
2018-06-04T07:17:56.332Z,84.15
2018-06-04T07:19:02.620Z,84.10
2018-06-04T07:20:09.515Z,83.95
2018-06-04T07:21:16.391Z,84.03
2018-06-04T07:22:23.288Z,84.00
2018-06-04T07:23:34.651Z,83.96
2018-06-04T07:24:37.314Z,83.94
2018-06-04T07:25:44.381Z,83.72
2018-06-04T07:26:51.349Z,83.83
2018-06-04T07:27:58.192Z,83.78
2018-06-04T07:29:05.067Z,83.80
2018-06-04T07:30:12.022Z,83.78
2018-06-04T07:31:19.513Z,83.75
2018-06-04T07:32:25.732Z,83.74
2018-06-04T07:33:32.802Z,83.89
2018-06-04T07:34:40.406Z,83.80
2018-06-04T07:35:46.809Z,83.86
2018-06-04T07:36:53.524Z,83.78
2018-06-04T07:38:00.617Z,83.86
2018-06-04T07:39:07.675Z,83.65
2018-06-04T07:40:14.645Z,83.57
2018-06-04T07:41:21.552Z,83.46
2018-06-04T07:42:28.542Z,83.45
2018-06-04T07:43:35.571Z,83.45
2018-06-04T07:44:42.133Z,83.31
2018-06-04T07:45:49.143Z,83.21
2018-06-04T07:46:56.024Z,83.08
2018-06-04T07:48:02.797Z,82.88
2018-06-04T07:49:10.617Z,82.73
2018-06-04T07:50:16.791Z,82.65
2018-06-04T07:51:23.828Z,82.53
2018-06-04T07:52:30.448Z,82.58
2018-06-04T07:53:37.360Z,82.44
2018-06-04T07:54:44.383Z,82.55
2018-06-04T07:55:51.607Z,82.39
2018-06-04T07:56:58.471Z,82.41
2018-06-04T07:58:05.664Z,82.27
2018-06-04T07:59:12.419Z,82.17
2018-06-04T08:00:19.182Z,82.15
2018-06-04T08:01:26.103Z,81.92
2018-06-04T08:02:34.103Z,81.91
2018-06-04T08:03:40.955Z,82.00
2018-06-04T08:04:46.959Z,82.02
2018-06-04T08:05:53.709Z,82.05
2018-06-04T08:07:00.749Z,81.91
2018-06-04T08:08:07.864Z,81.68
2018-06-04T08:09:15.316Z,81.37
2018-06-04T08:10:21.976Z,81.36
2018-06-04T08:11:33.111Z,81.29
2018-06-04T08:12:58.696Z,81.20
2018-06-04T08:14:05.746Z,81.32
2018-06-04T08:15:13.622Z,81.21
2018-06-04T08:16:20.247Z,81.00
2018-06-04T08:17:28.918Z,80.87
2018-06-04T08:19:52.577Z,81.04
2018-06-04T08:20:59.591Z,81.16
2018-06-04T08:22:06.551Z,80.95
2018-06-04T08:23:13.647Z,80.85
2018-06-04T08:25:27.339Z,80.84
2018-06-04T08:26:35.106Z,80.88
2018-06-04T08:27:41.157Z,80.61
2018-06-04T08:28:48.945Z,80.41
2018-06-04T08:29:55.162Z,80.21
2018-06-04T08:31:02.158Z,80.30
2018-06-04T08:32:09.066Z,80.41
2018-06-04T08:33:15.890Z,80.48
2018-06-04T08:34:22.500Z,80.83
2018-06-04T08:35:29.416Z,80.86
2018-06-04T08:36:36.448Z,81.09
2018-06-04T08:37:43.170Z,80.91
2018-06-04T08:38:51.017Z,80.74
2018-06-04T08:39:59.604Z,80.74
2018-06-04T08:41:03.884Z,80.47
2018-06-04T08:42:10.571Z,80.73
2018-06-04T08:44:26.495Z,80.54
2018-06-04T08:45:33.368Z,80.36
2018-06-04T08:46:40.307Z,80.58
2018-06-04T08:47:47.387Z,80.57
2018-06-04T08:48:54.405Z,80.48
2018-06-04T08:50:01.398Z,80.55
2018-06-04T08:51:08.054Z,80.27
2018-06-04T08:52:15.224Z,79.90
2018-06-04T08:53:21.650Z,79.38
2018-06-04T08:54:28.392Z,79.45
2018-06-04T08:55:35.091Z,79.32
2018-06-04T08:56:41.887Z,78.99
2018-06-04T08:57:48.871Z,78.92
2018-06-04T08:58:56.035Z,78.60
2018-06-04T09:00:02.372Z,78.30
2018-06-04T09:01:09.243Z,77.97
2018-06-04T09:02:16.235Z,77.96
2018-06-04T09:03:23.066Z,77.98
2018-06-04T09:04:31.128Z,78.17
2018-06-04T09:05:36.931Z,78.12
2018-06-04T09:06:43.582Z,77.83
2018-06-04T09:07:50.485Z,77.81
2018-06-04T09:09:14.573Z,77.54
2018-06-04T09:10:14.101Z,77.41
2018-06-04T09:12:25.154Z,77.01
2018-06-04T09:14:38.968Z,76.62
2018-06-04T09:15:46.626Z,76.57
2018-06-04T09:16:52.978Z,76.39
2018-06-04T09:17:59.767Z,76.18
2018-06-04T09:19:06.600Z,75.78
2018-06-04T09:20:13.555Z,75.71
2018-06-04T09:21:23.608Z,75.68
2018-06-04T09:22:27.224Z,75.51
2018-06-04T09:23:34.004Z,75.62
2018-06-04T09:24:40.901Z,75.17
2018-06-04T09:25:47.691Z,75.07
2018-06-04T09:26:54.861Z,74.76
2018-06-04T09:28:01.172Z,74.64
2018-06-04T09:29:08.099Z,74.43
2018-06-04T09:30:14.862Z,74.25
2018-06-04T09:31:21.786Z,74.01
2018-06-04T09:32:28.646Z,73.98
2018-06-04T09:33:36.798Z,74.00
2018-06-04T09:34:42.802Z,73.99
2018-06-04T09:35:49.857Z,73.95
2018-06-04T09:36:56.623Z,73.50
2018-06-04T09:38:03.544Z,73.15
2018-06-04T09:39:11.929Z,73.27
2018-06-04T09:40:49.532Z,73.10
2018-06-04T09:41:56.093Z,73.08
2018-06-04T09:43:04.625Z,73.81
2018-06-04T09:44:09.936Z,73.36
2018-06-04T09:45:20.753Z,72.93
2018-06-04T09:46:27.889Z,72.74
2018-06-04T09:47:46.250Z,72.72
2018-06-04T09:48:53.948Z,72.68
2018-06-04T09:50:02.918Z,72.89
2018-06-04T09:51:06.943Z,73.33
2018-06-04T09:52:23.062Z,73.61
2018-06-04T09:53:20.704Z,73.23
2018-06-04T09:54:27.688Z,73.18
2018-06-04T09:55:34.636Z,73.14
2018-06-04T09:56:41.608Z,72.96
2018-06-04T09:57:48.675Z,72.62
2018-06-04T09:58:55.287Z,72.08
2018-06-04T10:00:02.796Z,72.09
2018-06-04T10:01:09.255Z,72.09
2018-06-04T10:02:15.687Z,72.07
2018-06-04T10:03:22.456Z,72.31
2018-06-04T10:09:54.350Z,71.88
2018-06-04T10:11:00.904Z,71.85
2018-06-04T10:12:08.106Z,71.98
2018-06-04T10:13:14.968Z,72.24
2018-06-04T10:14:59.200Z,72.48
2018-06-04T10:16:05.117Z,71.75
2018-06-04T10:17:12.257Z,71.62
2018-06-04T10:18:19.160Z,71.40
2018-06-04T10:19:27.137Z,71.36
2018-06-04T10:20:33.184Z,71.44
2018-06-04T10:21:46.141Z,71.09
2018-06-04T10:23:06.018Z,70.88
2018-06-04T10:24:12.739Z,70.69
2018-06-04T10:26:26.201Z,70.58
2018-06-04T10:27:33.203Z,70.26
2018-06-04T10:28:40.239Z,70.08
2018-06-04T10:29:50.239Z,69.86
2018-06-04T10:30:54.266Z,69.78
2018-06-04T10:32:20.284Z,69.94
2018-06-04T10:33:27.442Z,70.03
2018-06-04T10:34:33.803Z,69.56
2018-06-04T10:35:40.851Z,69.43
2018-06-04T10:37:54.756Z,69.74
2018-06-04T10:39:01.669Z,69.69
2018-06-04T10:40:08.248Z,69.45
2018-06-04T10:41:16.505Z,69.31
2018-06-04T10:42:24.115Z,69.54
2018-06-04T10:43:29.262Z,69.81
2018-06-04T10:44:35.960Z,70.05
2018-06-04T10:45:42.805Z,69.87
2018-06-04T10:46:49.835Z,69.68
2018-06-04T10:47:57.420Z,69.88
2018-06-04T10:49:03.871Z,69.74
2018-06-04T10:50:11.021Z,68.87
2018-06-04T10:52:24.872Z,68.66
2018-06-04T10:53:31.612Z,68.51
2018-06-04T10:55:47.953Z,68.29
2018-06-04T10:56:52.713Z,68.34
2018-06-04T10:57:59.672Z,68.33
2018-06-04T11:00:13.708Z,67.50
2018-06-04T11:01:20.322Z,67.34
2018-06-04T11:02:27.224Z,67.02
2018-06-04T11:03:34.150Z,67.02
2018-06-04T11:05:48.488Z,67.22
2018-06-04T11:06:55.578Z,67.01
2018-06-04T11:08:02.547Z,67.10
2018-06-04T11:09:09.580Z,67.10
2018-06-04T11:10:16.571Z,66.82
2018-06-04T11:11:27.046Z,67.09
2018-06-04T11:12:30.446Z,67.61
2018-06-04T11:13:37.827Z,67.51
2018-06-04T11:14:56.030Z,67.57
2018-06-04T11:16:03.260Z,67.21
2018-06-04T11:17:20.077Z,66.77
2018-06-04T11:18:27.387Z,66.61
2018-06-04T11:19:34.879Z,66.82
2018-06-04T11:20:40.623Z,67.28
2018-06-04T11:21:50.961Z,67.78
2018-06-04T11:24:01.625Z,67.36
2018-06-04T11:25:08.665Z,67.45
2018-06-04T11:26:17.392Z,67.12
2018-06-04T11:27:24.632Z,67.14
2018-06-04T11:28:29.119Z,66.86
2018-06-04T11:29:36.061Z,66.75
2018-06-04T11:30:42.905Z,66.60
2018-06-04T11:31:49.750Z,66.76
2018-06-04T11:32:56.743Z,66.65
2018-06-04T11:34:03.900Z,66.72
2018-06-04T11:35:11.166Z,66.95
2018-06-04T11:36:17.703Z,66.96
2018-06-04T11:37:24.365Z,66.84
2018-06-04T11:38:31.477Z,67.16
2018-06-04T11:39:38.208Z,67.14
2018-06-04T11:40:45.847Z,66.95
2018-06-04T11:41:52.237Z,67.02
2018-06-04T11:42:59.366Z,67.62
2018-06-04T11:44:05.879Z,67.18
2018-06-04T11:45:13.339Z,67.15
2018-06-04T11:46:20.041Z,67.10
2018-06-04T11:47:26.909Z,67.31
2018-06-04T11:48:33.717Z,67.43
2018-06-04T11:49:40.783Z,67.35
2018-06-04T11:50:49.878Z,67.08
2018-06-04T11:51:54.307Z,67.49
2018-06-04T11:53:01.383Z,67.35
2018-06-04T11:54:08.695Z,67.02
2018-06-04T11:55:15.130Z,66.48
2018-06-04T11:56:22.245Z,66.44
2018-06-04T11:57:28.946Z,66.13
2018-06-04T11:58:35.946Z,65.85
2018-06-04T11:59:43.072Z,66.06
2018-06-04T12:00:49.992Z,65.85
2018-06-04T12:01:57.204Z,66.02
2018-06-04T12:03:03.539Z,65.61
2018-06-04T12:04:10.617Z,65.56
2018-06-04T12:05:18.232Z,65.26
2018-06-04T12:06:24.757Z,65.37
2018-06-04T12:07:31.632Z,65.65
2018-06-04T12:08:38.583Z,65.63
2018-06-04T12:09:45.640Z,66.05
2018-06-04T12:10:55.982Z,65.94
2018-06-04T12:12:00.082Z,65.76
2018-06-04T12:13:06.354Z,65.83
2018-06-04T12:14:13.940Z,66.26
2018-06-04T12:15:20.470Z,66.13
2018-06-04T12:16:29.287Z,66.06
2018-06-04T12:17:34.655Z,66.10
2018-06-04T12:18:41.167Z,66.22
2018-06-04T12:19:48.191Z,65.91
2018-06-04T12:20:55.126Z,65.95
2018-06-04T12:22:01.927Z,65.51
2018-06-04T12:23:08.945Z,65.20
2018-06-04T12:24:15.666Z,64.74
2018-06-04T12:25:22.646Z,64.79
2018-06-04T12:26:29.708Z,64.54
2018-06-04T12:27:36.608Z,64.56
2018-06-04T12:28:43.499Z,64.06
2018-06-04T12:29:50.863Z,63.70
2018-06-04T12:30:57.204Z,63.76
2018-06-04T12:32:04.198Z,63.87
2018-06-04T12:33:11.008Z,63.58
2018-06-04T12:34:17.844Z,63.46
2018-06-04T12:35:24.813Z,63.72
2018-06-04T12:36:31.732Z,63.23
2018-06-04T12:37:38.574Z,62.93
2018-06-04T12:38:45.583Z,63.10
2018-06-04T12:39:52.681Z,62.79
2018-06-04T12:40:59.290Z,62.23
2018-06-04T12:42:06.331Z,62.04
2018-06-04T12:43:16.233Z,62.10
2018-06-04T12:44:20.297Z,62.13
2018-06-04T12:45:27.199Z,62.10
2018-06-04T12:46:34.243Z,61.97
2018-06-04T12:47:41.264Z,61.74
2018-06-04T12:48:48.109Z,61.87
2018-06-04T12:49:54.902Z,61.61
2018-06-04T12:51:01.679Z,61.46
2018-06-04T12:52:08.566Z,61.30
2018-06-04T12:53:15.371Z,60.98
2018-06-04T12:54:22.381Z,60.87
2018-06-04T12:55:29.442Z,60.74
2018-06-04T12:56:36.422Z,61.04
2018-06-04T12:58:50.219Z,60.48
2018-06-04T12:59:57.707Z,60.06
2018-06-04T13:01:03.987Z,59.77
2018-06-04T13:02:11.022Z,59.80
2018-06-04T13:03:18.018Z,59.89
2018-06-04T13:04:24.915Z,59.75
2018-06-04T13:05:39.112Z,59.76
2018-06-04T13:06:45.507Z,59.34
2018-06-04T13:07:54.734Z,59.19
2018-06-04T13:09:01.662Z,59.55
2018-06-04T13:10:08.672Z,59.35
2018-06-04T13:11:16.412Z,59.42
2018-06-04T13:12:22.464Z,59.59
2018-06-04T13:13:29.598Z,59.65
2018-06-04T13:14:36.654Z,59.75
2018-06-04T13:15:43.702Z,59.53
2018-06-04T13:16:50.634Z,59.43
2018-06-04T13:17:57.682Z,59.57
2018-06-04T13:19:04.513Z,59.81
2018-06-04T13:20:11.370Z,59.96
2018-06-04T13:21:18.289Z,60.30
2018-06-04T13:22:25.083Z,60.15
2018-06-04T13:23:31.874Z,60.00
2018-06-04T13:24:39.868Z,60.05
2018-06-04T13:25:46.895Z,60.22
2018-06-04T13:26:52.282Z,60.34
2018-06-04T13:27:59.241Z,60.23
2018-06-04T13:30:12.966Z,59.79
2018-06-04T13:31:20.054Z,59.83
2018-06-04T13:32:27.224Z,59.68
2018-06-04T13:33:34.152Z,59.82
2018-06-04T13:34:41.143Z,59.75
2018-06-04T13:35:59.521Z,60.15
2018-06-04T13:38:29.670Z,60.12
2018-06-04T13:39:38.713Z,60.05
2018-06-04T13:40:43.708Z,60.14
2018-06-04T13:41:50.425Z,60.18
2018-06-04T13:42:57.239Z,60.04
2018-06-04T13:44:04.038Z,60.02
2018-06-04T13:45:11.211Z,60.16
2018-06-04T13:46:17.998Z,60.15
2018-06-04T13:47:25.071Z,59.99
2018-06-04T13:48:41.706Z,60.17
2018-06-04T13:49:49.047Z,60.03
2018-06-04T13:51:02.208Z,59.95
2018-06-04T13:52:08.815Z,60.09
2018-06-04T13:53:15.692Z,59.93
2018-06-04T13:54:22.805Z,59.89
2018-06-04T13:55:29.643Z,60.02
2018-06-04T13:56:36.636Z,59.93
2018-06-04T13:57:43.534Z,59.99
2018-06-04T13:58:50.379Z,60.17
2018-06-04T13:59:57.308Z,60.05
2018-06-04T14:01:04.222Z,60.02
2018-06-04T14:02:11.184Z,59.96
2018-06-04T14:03:18.117Z,59.89
2018-06-04T14:04:25.060Z,60.09
2018-06-04T14:05:32.156Z,59.80
2018-06-04T14:06:39.155Z,59.71
2018-06-04T14:07:45.908Z,59.60
2018-06-04T14:08:52.811Z,59.40
2018-06-04T14:10:30.333Z,59.31
2018-06-04T14:11:35.592Z,59.11
2018-06-04T14:12:42.343Z,58.89
2018-06-04T14:13:49.182Z,58.97
2018-06-04T14:14:56.128Z,58.84
2018-06-04T14:16:03.106Z,58.88
2018-06-04T14:17:10.115Z,58.97
2018-06-04T14:18:18.255Z,58.93
2018-06-04T14:19:23.772Z,58.95
2018-06-04T14:20:32.625Z,58.56
2018-06-04T14:21:37.837Z,58.33
2018-06-04T14:22:44.706Z,58.06
2018-06-04T14:23:52.242Z,58.15
2018-06-04T14:24:58.727Z,58.22
2018-06-04T14:26:05.503Z,58.32
2018-06-04T14:27:12.382Z,58.23
2018-06-04T14:28:19.275Z,58.47
2018-06-04T14:29:26.234Z,58.07
2018-06-04T14:30:33.118Z,57.85
2018-06-04T14:31:40.009Z,57.77
2018-06-04T14:33:58.794Z,57.59
2018-06-04T14:35:05.687Z,58.03
2018-06-04T14:36:12.070Z,57.93
2018-06-04T14:37:17.321Z,57.82
2018-06-04T14:38:24.365Z,57.36
2018-06-04T14:39:31.276Z,57.42
2018-06-04T14:40:38.033Z,57.45
2018-06-04T14:41:44.969Z,57.19
2018-06-04T14:42:52.022Z,56.99
2018-06-04T14:43:58.987Z,56.93
2018-06-04T14:46:30.330Z,56.08
2018-06-04T14:48:45.654Z,55.75
2018-06-04T14:50:00.703Z,55.68
2018-06-04T14:51:07.920Z,55.55
2018-06-04T14:52:14.880Z,55.54